logo tempoitalia

Diretta Meteo Zaragoza, Spagnavenerdì 19 luglio ore 08:00

Mappa
Sereno 24 °C Sereno 24 Ore: T.min 24 T.max 39
Ponente Ovest Km/h 16.7 Punto di rugiada: 19 °C Umidità: 73% Visibilità: 10 Km
Il sole sorge alle: 06:45 Il sole tramonta alle: 21:35
19 Luglio 2024 08:00 tempo osservato: Sereno Sereno 24 73 1019 vento: Nord O 16.7
19 Luglio 2024 07:30 tempo osservato: Sereno Sereno 24 73 1018 vento: Nord O 11.1
19 Luglio 2024 06:30 tempo osservato: Sereno Sereno 24 73 1018 vento: Nord O/NO 20.3
19 Luglio 2024 06:00 tempo osservato: Sereno Sereno 25 69 1018 vento: Nord O/NO 16.7
19 Luglio 2024 05:30 tempo osservato: Sereno Sereno 25 69 1017 vento: Nord O 13
19 Luglio 2024 05:00 tempo osservato: Sereno Sereno 26 65 1017 vento: Nord O/NO 11.1
19 Luglio 2024 04:30 tempo osservato: Sereno Sereno 26 65 1017 vento: Nord O/NO 11.1
19 Luglio 2024 04:00 tempo osservato: Sereno Sereno 27 61 1017 vento: Nord O/NO 14.8
19 Luglio 2024 03:30 tempo osservato: Sereno Sereno 28 58 1017 vento: Nord N/NO 13
19 Luglio 2024 03:00 tempo osservato: Sereno Sereno 28 54 1017 vento: Nord N 9.3
19 Luglio 2024 02:30 tempo osservato: Sereno Sereno 28 58 1016 vento: Nord NE 11.1
19 Luglio 2024 02:00 tempo osservato: Sereno Sereno 29 51 1016 vento: Nord E 16.7
19 Luglio 2024 01:30 tempo osservato: Sereno Sereno 29 54 1016 vento: Nord E 16.7
19 Luglio 2024 01:00 tempo osservato: Sereno Sereno 30 48 1016 vento: Nord E 11.1
19 Luglio 2024 00:30 tempo osservato: Sereno Sereno 30 48 1016 vento: Nord E 11.1
19 Luglio 2024 00:00 tempo osservato: Sereno Sereno 30 48 1016 vento: Nord E 9.3
18 Luglio 2024 23:30 tempo osservato: Sereno Sereno 31 45 1016 vento: Nord E 11.1
18 Luglio 2024 23:00 tempo osservato: Sereno Sereno 31 43 1016 vento: Nord E 11.1
18 Luglio 2024 22:30 tempo osservato: Sereno Sereno 33 33 1015 vento: Nord E 13
18 Luglio 2024 22:00 tempo osservato: Sereno Sereno 33 41 1015 vento: Nord SE 16.7
18 Luglio 2024 21:30 tempo osservato: Sereno Sereno 33 33 1015 vento: Nord SE 13
18 Luglio 2024 21:00 tempo osservato: Poco Nuvoloso Poco Nuvoloso 33 31 1014 vento: Nord E/NE 13
18 Luglio 2024 20:30 tempo osservato: Poco Nuvoloso Poco Nuvoloso 34 32 1015 vento: Nord N 5.5
18 Luglio 2024 20:10 tempo osservato: Pioggia Pioggia 32 38 1015 vento: Nord SO 64.8
18 Luglio 2024 20:00 tempo osservato: Poco Nuvoloso Poco Nuvoloso 37 27 1015 vento: Nord N 5.5
18 Luglio 2024 19:30 tempo osservato: Sereno Sereno 38 22 1014 vento: Nord E 13
18 Luglio 2024 19:00 tempo osservato: Sereno Sereno 38 22 1014 vento: Nord E/SE 11.1
18 Luglio 2024 18:30 tempo osservato: Sereno Sereno 39 21 1014 vento: Nord E 11.1
18 Luglio 2024 18:00 tempo osservato: Sereno Sereno 38 19 1014 vento: Nord E 9.3
18 Luglio 2024 17:30 tempo osservato: Sereno Sereno 38 21 1014 vento: Nord E 9.3
18 Luglio 2024 17:00 tempo osservato: Sereno Sereno 38 18 1015 vento: Nord NE 11.1
18 Luglio 2024 16:30 tempo osservato: Sereno Sereno 37 23 1015 vento: Nord E/NE 9.3
18 Luglio 2024 16:00 tempo osservato: Sereno Sereno 37 28 1015 vento: Nord NE 9.3
18 Luglio 2024 15:30 tempo osservato: Sereno Sereno 36 32 1016 vento: Nord N 5.5
18 Luglio 2024 15:00 tempo osservato: Sereno Sereno 35 34 1016 vento: Nord E/NE 7.4
18 Luglio 2024 14:30 tempo osservato: Sereno Sereno 35 36 1017 vento: Nord E 9.3
18 Luglio 2024 13:30 tempo osservato: Sereno Sereno 32 46 1017 vento: Nord E/NE 9.3
18 Luglio 2024 13:00 tempo osservato: Sereno Sereno 32 46 1017 vento: Nord E 11.1
18 Luglio 2024 12:30 tempo osservato: Sereno Sereno 31 48 1018 vento: Nord E 11.1
18 Luglio 2024 12:00 tempo osservato: Sereno Sereno 29 51 1018 vento: Nord E 13
18 Luglio 2024 11:30 tempo osservato: Sereno Sereno 28 54 1018 vento: Nord E 13
18 Luglio 2024 11:00 tempo osservato: Sereno Sereno 27 57 1018 vento: Nord E 13
18 Luglio 2024 10:30 tempo osservato: Sereno Sereno 26 61 1018 vento: Nord E 9.3
18 Luglio 2024 10:00 tempo osservato: Sereno Sereno 26 61 1018 vento: Nord E/NE 9.3
18 Luglio 2024 09:30 tempo osservato: Sereno Sereno 25 65 1018 vento: Nord E 9.3
18 Luglio 2024 09:00 tempo osservato: Sereno Sereno 24 69 1018 vento: Nord E 9.3